Terminal Aerodrome Forecast
Issued by NWS

Home | Current Version | Previous Version | Text Only | Print | Product List | Glossary On
Versions: 1 2 3 4 5 6 7 8 9 10 11 12 13 14
135
FTUS46 KSGX 241729
TAFSNA
TAF
KSNA 241729Z 2418/2518 22006KT P6SM SKC
     FM242000 24010KT P6SM FEW250
     FM250100 VRB06KT P6SM SCT020
     FM251200 VRB04KT P6SM BKN015
     FM251700 VRB06KT P6SM VCSH BKN025 BKN040=

USA.gov is the U.S. government's official web portal to all federal, state and local government web resources and services.